Ag Nektarios Aiginas — SX7083 — position and weather

sailwx.info

Track history (hours):
 
Tides and Currents Weather Stations Pressure Air Temp Water Temp Dewpoint Dewpoint Depression Visibility Wind Speed Wind Dir Waves Ship Positions

Ag Nektarios Aiginas

Last reported at 2017-Jun-26 16:53 UTC. Time now 2017-Jun-26 18:48 UTC.
Position N 37°57' E 023°38'.

Length 75 m; draft 2.7 m.

Type: Passenger vessel. MMSI: 237021400.

Date/timePositionNaut miles runAvg speedWind from/ knotsBaromVisibWave heightAir tempDewpointWater temp
2017-Jun-26 16:53N 37°57' E 023°38'3 8.5
2017-Jun-26 16:30N 37°54' E 023°36'612.9
2017-Jun-26 16:00N 37°49' E 023°30'612.3
2017-Jun-26 15:30N 37°45' E 023°25'1 0.9
2017-Jun-26 14:42N 37°45' E 023°25'811.6
2017-Jun-26 14:01N 37°51' E 023°32'612.9
2017-Jun-26 13:30N 37°56' E 023°37'2 1.6
2017-Jun-26 12:32N 37°57' E 023°38'0 0.4
2017-Jun-26 12:30N 37°57' E 023°38'510.8
2017-Jun-26 12:00N 37°53' E 023°34'612.8
2017-Jun-26 11:30N 37°48' E 023°28'4 8.0
2017-Jun-26 11:00N 37°45' E 023°25'2 3.2
2017-Jun-26 10:30N 37°46' E 023°25'613.0
2017-Jun-26 10:00N 37°50' E 023°32'612.9
2017-Jun-26 09:30N 37°56' E 023°36'2 4.7
2017-Jun-26 09:00N 37°57' E 023°39'2 4.6
2017-Jun-26 08:30N 37°55' E 023°36'613.0
2017-Jun-26 08:01N 37°50' E 023°32'713.0
2017-Jun-26 07:30N 37°46' E 023°25'1 2.8
2017-Jun-26 07:01N 37°45' E 023°25'3 5.0
2017-Jun-26 06:30N 37°47' E 023°27'712.9
2017-Jun-26 05:57N 37°52' E 023°33'612.7
2017-Jun-26 05:30N 37°56' E 023°38'1 1.5
2017-Jun-26 05:00N 37°57' E 023°38'0 0.0
2017-Jun-26 04:30N 37°57' E 023°38'0 0.0
2017-Jun-25 20:17N 37°57' E 023°38'0 0.2
2017-Jun-25 20:01N 37°57' E 023°38'510.5
2017-Jun-25 19:31N 37°53' E 023°34'612.8
2017-Jun-25 19:00N 37°48' E 023°28'4 8.2
2017-Jun-25 18:30N 37°45' E 023°26'0 0.0
2017-Jun-25 17:58N 37°45' E 023°26'2 4.2
2017-Jun-25 17:31N 37°47' E 023°26'713.2
2017-Jun-25 17:01N 37°51' E 023°32'713.2
2017-Jun-25 16:31N 37°56' E 023°37'1 1.6
2017-Jun-25 16:01N 37°57' E 023°38'612.1
2017-Jun-25 15:30N 37°52' E 023°33'612.5
2017-Jun-25 15:01N 37°48' E 023°27'3 3.2
2017-Jun-25 14:00N 37°45' E 023°26'4 7.3
2017-Jun-25 13:31N 37°48' E 023°28'713.1
2017-Jun-25 13:01N 37°52' E 023°34'611.2
2017-Jun-25 12:31N 37°57' E 023°39'1 1.6
2017-Jun-25 12:01N 37°56' E 023°38'612.7
2017-Jun-25 11:31N 37°51' E 023°33'612.8
2017-Jun-25 11:01N 37°47' E 023°27'3 5.1
2017-Jun-25 10:31N 37°45' E 023°26'0 0.0
2017-Jun-25 10:01N 37°45' E 023°26'4 8.2
2017-Jun-25 09:31N 37°48' E 023°28'612.7
2017-Jun-25 09:01N 37°53' E 023°34'510.7
2017-Jun-25 08:31N 37°57' E 023°39'0 0.0
2017-Jun-25 08:01N 37°57' E 023°39'0 0.0
2017-Jun-25 07:31N 37°57' E 023°39'0 0.0
2017-Jun-25 07:01N 37°57' E 023°39'0 0.0
2017-Jun-24 17:08N 37°57' E 023°39'0 0.0
2017-Jun-24 17:00N 37°57' E 023°39'2 4.1
2017-Jun-24 16:30N 37°55' E 023°36'612.9
2017-Jun-24 16:00N 37°50' E 023°32'612.8
2017-Jun-24 15:30N 37°46' E 023°25'2 3.4
2017-Jun-24 15:00N 37°45' E 023°26'7 7.1
2017-Jun-24 14:00N 37°50' E 023°31'612.9
2017-Jun-24 13:30N 37°55' E 023°36'2 4.4
2017-Jun-24 13:00N 37°57' E 023°39'4 8.8
2017-Jun-24 12:30N 37°53' E 023°35'612.6
2017-Jun-24 12:00N 37°49' E 023°29'510.1
2017-Jun-24 11:30N 37°45' E 023°25'1 1.1
2017-Jun-24 11:00N 37°45' E 023°25'612.3
2017-Jun-24 10:30N 37°49' E 023°31'612.6
2017-Jun-24 10:00N 37°54' E 023°36'3 6.7
2017-Jun-24 09:30N 37°57' E 023°39'0 0.0
2017-Jun-24 09:00N 37°57' E 023°39'4 7.8
2017-Jun-24 08:30N 37°54' E 023°35'612.6
2017-Jun-24 08:00N 37°49' E 023°30'611.4
2017-Jun-24 07:30N 37°45' E 023°25'0 0.9
2017-Jun-24 07:00N 37°45' E 023°25'3 6.9
2017-Jun-24 06:30N 37°48' E 023°28'612.3
2017-Jun-24 06:00N 37°52' E 023°34'612.0
2017-Jun-24 05:30N 37°57' E 023°38'0 0.4
2017-Jun-24 05:00N 37°57' E 023°39'0 0.0
2017-Jun-24 04:30N 37°57' E 023°39'0 0.0
2017-Jun-23 17:31N 37°57' E 023°39'0 0.0
2017-Jun-23 17:30N 37°57' E 023°39'3 6.4
2017-Jun-23 17:00N 37°54' E 023°36'612.9
2017-Jun-23 16:30N 37°49' E 023°30'612.2
2017-Jun-23 16:00N 37°45' E 023°25'1 1.5
2017-Jun-23 15:30N 37°45' E 023°26'3 6.1
2017-Jun-23 15:00N 37°48' E 023°27'1212.2
2017-Jun-23 14:00N 37°56' E 023°38'1 1.4
2017-Jun-23 13:31N 37°57' E 023°38'0 0.0
2017-Jun-23 13:00N 37°57' E 023°38'0 0.0
2017-Jun-23 12:30N 37°57' E 023°38'510.4
2017-Jun-23 12:00N 37°53' E 023°34'612.4
2017-Jun-23 11:30N 37°48' E 023°29'4 8.8
2017-Jun-23 11:00N 37°45' E 023°26'2 3.3
2017-Jun-23 10:31N 37°46' E 023°25'612.8
2017-Jun-23 10:00N 37°50' E 023°32'612.9
2017-Jun-23 09:30N 37°56' E 023°37'2 3.7
2017-Jun-23 09:01N 37°57' E 023°39'2 3.0
2017-Jun-23 08:30N 37°56' E 023°37'612.6
2017-Jun-23 08:00N 37°51' E 023°32'612.6
2017-Jun-23 07:31N 37°47' E 023°26'2 4.0
2017-Jun-23 06:58N 37°45' E 023°26'2 5.0
2017-Jun-23 06:30N 37°47' E 023°26'612.6
2017-Jun-23 06:00N 37°51' E 023°32'612.9
2017-Jun-23 05:30N 37°56' E 023°37'1 2.1
2017-Jun-23 05:00N 37°57' E 023°38'0 0.0
2017-Jun-23 04:31N 37°57' E 023°38'0 0.0
2017-Jun-22 16:52N 37°57' E 023°38'2 4.7
2017-Jun-22 16:31N 37°56' E 023°37'612.7
2017-Jun-22 16:01N 37°51' E 023°32'612.8
2017-Jun-22 15:31N 37°47' E 023°26'2 3.6
2017-Jun-22 15:00N 37°45' E 023°26'2 3.7
2017-Jun-22 14:31N 37°47' E 023°26'1212.5
2017-Jun-22 13:31N 37°56' E 023°37'2 3.7
2017-Jun-22 13:01N 37°57' E 023°38'0 0.0
2017-Jun-22 12:31N 37°57' E 023°38'5 9.7
2017-Jun-22 12:01N 37°53' E 023°34'612.5
2017-Jun-22 11:31N 37°49' E 023°29'5 9.5
2017-Jun-22 11:01N 37°45' E 023°25'2 3.2
2017-Jun-22 10:30N 37°46' E 023°25'612.6
2017-Jun-22 10:01N 37°50' E 023°32'612.7
2017-Jun-22 09:31N 37°55' E 023°36'2 4.7
2017-Jun-22 09:01N 37°57' E 023°39'0 0.1
2017-Jun-22 08:31N 37°57' E 023°38'611.6
2017-Jun-22 08:01N 37°52' E 023°34'612.7
2017-Jun-22 07:30N 37°48' E 023°28'4 7.3
2017-Jun-22 07:00N 37°45' E 023°25'2 4.4
2017-Jun-22 06:31N 37°47' E 023°26'612.6
2017-Jun-22 06:01N 37°51' E 023°32'613.0
2017-Jun-22 05:31N 37°56' E 023°37'1 2.2
2017-Jun-22 05:00N 37°57' E 023°38'0 0.0
2017-Jun-22 04:31N 37°57' E 023°38'0 0.0
2017-Jun-21 16:55N 37°57' E 023°38'2 4.3
2017-Jun-21 16:30N 37°56' E 023°37'612.8
2017-Jun-21 16:00N 37°51' E 023°32'612.7
2017-Jun-21 15:30N 37°46' E 023°26'2 3.4
2017-Jun-21 14:59N 37°45' E 023°26'2 3.6
2017-Jun-21 14:30N 37°46' E 023°26'1312.8
2017-Jun-21 13:31N 37°56' E 023°37'2 3.5
2017-Jun-21 13:00N 37°57' E 023°38'0 0.0
2017-Jun-21 12:30N 37°57' E 023°38'510.3
2017-Jun-21 12:00N 37°53' E 023°34'612.7
2017-Jun-21 11:30N 37°48' E 023°29'4 8.4
2017-Jun-21 11:00N 37°45' E 023°25'1 2.2
2017-Jun-21 10:30N 37°46' E 023°25'612.9
2017-Jun-21 10:00N 37°50' E 023°31'713.0
2017-Jun-21 09:30N 37°55' E 023°36'3 5.3
2017-Jun-21 09:00N 37°57' E 023°38'0 0.1
2017-Jun-21 08:30N 37°57' E 023°38'510.7
2017-Jun-21 08:00N 37°53' E 023°34'612.4
2017-Jun-21 07:30N 37°48' E 023°29'4 8.4
2017-Jun-21 07:00N 37°45' E 023°25'2 4.0
2017-Jun-21 06:30N 37°47' E 023°26'612.9
2017-Jun-21 06:00N 37°51' E 023°32'713.1
2017-Jun-21 05:30N 37°56' E 023°37'1 2.5
2017-Jun-21 05:00N 37°57' E 023°39'0 0.0
2017-Jun-21 04:30N 37°57' E 023°39'0 0.0
2017-Jun-20 17:11N 37°57' E 023°39'0 0.0
2017-Jun-20 17:01N 37°57' E 023°39'5 9.2
2017-Jun-20 16:31N 37°53' E 023°35'612.4
2017-Jun-20 16:01N 37°49' E 023°29'5 9.2
2017-Jun-20 15:28N 37°45' E 023°25'0 0.0
2017-Jun-20 14:51N 37°45' E 023°25'910.2
2017-Jun-20 14:00N 37°51' E 023°33'712.8
2017-Jun-20 13:30N 37°56' E 023°38'1 1.1
2017-Jun-20 12:44N 37°57' E 023°39'0 0.2
2017-Jun-20 12:29N 37°57' E 023°38'510.4
2017-Jun-20 12:00N 37°53' E 023°34'612.8
2017-Jun-20 11:31N 37°48' E 023°28'5 5.6
2017-Jun-20 10:41N 37°45' E 023°25'210.9
2017-Jun-20 10:30N 37°47' E 023°26'612.8
2017-Jun-20 10:01N 37°51' E 023°32'713.3
2017-Jun-20 09:30N 37°56' E 023°37'2 1.8
2017-Jun-20 08:35N 37°57' E 023°39'0 5.4
2017-Jun-20 08:30N 37°56' E 023°38'612.0
2017-Jun-20 08:01N 37°52' E 023°33'612.6
2017-Jun-20 07:30N 37°48' E 023°27'3 6.4
2017-Jun-20 07:01N 37°45' E 023°26'2 4.7
2017-Jun-20 06:29N 37°47' E 023°27'612.9
2017-Jun-20 06:01N 37°51' E 023°33'713.0
2017-Jun-20 05:30N 37°56' E 023°37'1 0.1
2017-Jun-19 16:52N 37°57' E 023°38'3 7.1
2017-Jun-19 16:30N 37°55' E 023°36'612.3
2017-Jun-19 16:00N 37°50' E 023°31'612.5
2017-Jun-19 15:30N 37°46' E 023°25'2 3.0
2017-Jun-19 15:00N 37°45' E 023°25'7 6.7
2017-Jun-19 14:00N 37°50' E 023°31'713.4
2017-Jun-19 13:30N 37°55' E 023°36'3 5.2
2017-Jun-19 13:00N 37°57' E 023°39'0 0.2
2017-Jun-19 12:30N 37°57' E 023°38'611.4
2017-Jun-19 12:00N 37°52' E 023°34'612.5
2017-Jun-19 11:30N 37°48' E 023°28'4 7.3
2017-Jun-19 10:59N 37°45' E 023°25'1 3.1
2017-Jun-19 10:30N 37°46' E 023°25'613.0
2017-Jun-19 10:00N 37°50' E 023°32'713.1
2017-Jun-19 09:30N 37°56' E 023°36'2 4.6
2017-Jun-19 09:00N 37°57' E 023°38'1 2.9
2017-Jun-19 08:31N 37°56' E 023°37'612.4
2017-Jun-19 08:00N 37°51' E 023°32'612.5
2017-Jun-19 07:30N 37°47' E 023°26'2 4.1
2017-Jun-19 06:58N 37°45' E 023°25'2 4.8
2017-Jun-19 06:30N 37°47' E 023°26'713.1
2017-Jun-19 06:00N 37°51' E 023°33'613.1
2017-Jun-19 05:31N 37°56' E 023°37'1 2.1
2017-Jun-19 05:00N 37°57' E 023°39'0 0.0
2017-Jun-19 04:30N 37°57' E 023°39'0 0.0
2017-Jun-18 20:09N 37°57' E 023°39'0 0.0
2017-Jun-18 20:00N 37°57' E 023°38'5 9.7
2017-Jun-18 19:30N 37°53' E 023°35'612.7
2017-Jun-18 19:00N 37°49' E 023°29'5 8.6
2017-Jun-18 18:28N 37°45' E 023°26'0 0.0
2017-Jun-18 17:38N 37°45' E 023°26'0 3.0
2017-Jun-18 17:30N 37°45' E 023°25'611.9
2017-Jun-18 17:00N 37°49' E 023°30'612.9
2017-Jun-18 16:30N 37°54' E 023°35'4 7.2
2017-Jun-18 16:00N 37°57' E 023°38'510.1
2017-Jun-18 15:30N 37°53' E 023°34'612.5
2017-Jun-18 15:01N 37°49' E 023°29'5 4.4
2017-Jun-18 13:58N 37°45' E 023°26'4 7.7
2017-Jun-18 13:30N 37°48' E 023°28'713.1
2017-Jun-18 13:00N 37°52' E 023°34'611.4
2017-Jun-18 12:30N 37°57' E 023°39'0 0.0
2017-Jun-18 12:00N 37°57' E 023°38'611.1
2017-Jun-18 11:30N 37°53' E 023°34'612.0
2017-Jun-18 11:00N 37°48' E 023°28'4 8.4
2017-Jun-18 10:30N 37°45' E 023°26'0 0.0
2017-Jun-18 10:00N 37°45' E 023°26'3 6.7
2017-Jun-18 09:30N 37°48' E 023°28'713.5
2017-Jun-18 09:00N 37°52' E 023°34'611.5
2017-Jun-18 08:30N 37°57' E 023°39'0 0.0
2017-Jun-18 08:00N 37°57' E 023°39'0 0.0
2017-Jun-18 07:30N 37°57' E 023°39'0 0.0
2017-Jun-17 17:01N 37°57' E 023°39'0 0.0
2017-Jun-17 17:01N 37°57' E 023°39'2 5.0
2017-Jun-17 16:31N 37°55' E 023°36'612.7
2017-Jun-17 16:01N 37°50' E 023°31'612.7
2017-Jun-17 15:30N 37°46' E 023°25'1 2.7
2017-Jun-17 15:01N 37°45' E 023°25'2 3.6
2017-Jun-17 14:31N 37°46' E 023°26'1312.9
2017-Jun-17 13:30N 37°56' E 023°37'1 2.9
2017-Jun-17 13:00N 37°57' E 023°39'2 4.4
2017-Jun-17 12:31N 37°55' E 023°36'612.8
2017-Jun-17 12:00N 37°50' E 023°31'612.8
2017-Jun-17 11:31N 37°46' E 023°25'2 3.2
2017-Jun-17 11:00N 37°45' E 023°26'2 3.1
2017-Jun-17 10:30N 37°46' E 023°25'612.9
2017-Jun-17 10:01N 37°50' E 023°31'612.9
2017-Jun-17 09:31N 37°55' E 023°36'2 4.1
2017-Jun-17 09:01N 37°57' E 023°39'2 3.8
2017-Jun-17 08:30N 37°56' E 023°37'612.6
2017-Jun-17 08:01N 37°51' E 023°32'612.8
2017-Jun-17 07:31N 37°46' E 023°25'2 2.9
2017-Jun-17 06:57N 37°45' E 023°25'4 8.9
2017-Jun-17 06:30N 37°48' E 023°28'612.9
2017-Jun-17 06:01N 37°53' E 023°34'510.9
2017-Jun-17 05:31N 37°57' E 023°38'0 0.1
2017-Jun-17 05:01N 37°57' E 023°38'0 0.0
2017-Jun-17 04:30N 37°57' E 023°38'0 0.0
2017-Jun-16 17:24N 37°57' E 023°38'2 5.2
2017-Jun-16 17:00N 37°55' E 023°36'  
Track history (hours):
 
Tides and Currents Weather Stations Pressure Air Temp Water Temp Dewpoint Dewpoint Depression Visibility Wind Speed Wind Dir Waves Ship Positions

Ag Nektarios Aiginas

Last reported at 2017-Jun-26 16:53 UTC. Time now 2017-Jun-26 18:48 UTC.
Position N 37°57' E 023°38'.

Length 75 m; draft 2.7 m.

Type: Passenger vessel. MMSI: 237021400.

Date/timePositionNaut miles runAvg speedWind from/ knotsBaromVisibWave heightAir tempDewpointWater temp
2017-Jun-26 16:53N 37°57' E 023°38'3 8.5
2017-Jun-26 16:30N 37°54' E 023°36'612.9
2017-Jun-26 16:00N 37°49' E 023°30'612.3
2017-Jun-26 15:30N 37°45' E 023°25'1 0.9
2017-Jun-26 14:42N 37°45' E 023°25'811.6
2017-Jun-26 14:01N 37°51' E 023°32'612.9
2017-Jun-26 13:30N 37°56' E 023°37'2 1.6
2017-Jun-26 12:32N 37°57' E 023°38'0 0.4
2017-Jun-26 12:30N 37°57' E 023°38'510.8
2017-Jun-26 12:00N 37°53' E 023°34'612.8
2017-Jun-26 11:30N 37°48' E 023°28'4 8.0
2017-Jun-26 11:00N 37°45' E 023°25'2 3.2
2017-Jun-26 10:30N 37°46' E 023°25'613.0
2017-Jun-26 10:00N 37°50' E 023°32'612.9
2017-Jun-26 09:30N 37°56' E 023°36'2 4.7
2017-Jun-26 09:00N 37°57' E 023°39'2 4.6
2017-Jun-26 08:30N 37°55' E 023°36'613.0
2017-Jun-26 08:01N 37°50' E 023°32'713.0
2017-Jun-26 07:30N 37°46' E 023°25'1 2.8
2017-Jun-26 07:01N 37°45' E 023°25'3 5.0
2017-Jun-26 06:30N 37°47' E 023°27'712.9
2017-Jun-26 05:57N 37°52' E 023°33'612.7
2017-Jun-26 05:30N 37°56' E 023°38'1 1.5
2017-Jun-26 05:00N 37°57' E 023°38'0 0.0
2017-Jun-26 04:30N 37°57' E 023°38'0 0.0
2017-Jun-25 20:17N 37°57' E 023°38'0 0.2
2017-Jun-25 20:01N 37°57' E 023°38'510.5
2017-Jun-25 19:31N 37°53' E 023°34'612.8
2017-Jun-25 19:00N 37°48' E 023°28'4 8.2
2017-Jun-25 18:30N 37°45' E 023°26'0 0.0
2017-Jun-25 17:58N 37°45' E 023°26'2 4.2
2017-Jun-25 17:31N 37°47' E 023°26'713.2
2017-Jun-25 17:01N 37°51' E 023°32'713.2
2017-Jun-25 16:31N 37°56' E 023°37'1 1.6
2017-Jun-25 16:01N 37°57' E 023°38'612.1
2017-Jun-25 15:30N 37°52' E 023°33'612.5
2017-Jun-25 15:01N 37°48' E 023°27'3 3.2
2017-Jun-25 14:00N 37°45' E 023°26'4 7.3
2017-Jun-25 13:31N 37°48' E 023°28'713.1
2017-Jun-25 13:01N 37°52' E 023°34'611.2
2017-Jun-25 12:31N 37°57' E 023°39'1 1.6
2017-Jun-25 12:01N 37°56' E 023°38'612.7
2017-Jun-25 11:31N 37°51' E 023°33'612.8
2017-Jun-25 11:01N 37°47' E 023°27'3 5.1
2017-Jun-25 10:31N 37°45' E 023°26'0 0.0
2017-Jun-25 10:01N 37°45' E 023°26'4 8.2
2017-Jun-25 09:31N 37°48' E 023°28'612.7
2017-Jun-25 09:01N 37°53' E 023°34'510.7
2017-Jun-25 08:31N 37°57' E 023°39'0 0.0
2017-Jun-25 08:01N 37°57' E 023°39'0 0.0
2017-Jun-25 07:31N 37°57' E 023°39'0 0.0
2017-Jun-25 07:01N 37°57' E 023°39'0 0.0
2017-Jun-24 17:08N 37°57' E 023°39'0 0.0
2017-Jun-24 17:00N 37°57' E 023°39'2 4.1
2017-Jun-24 16:30N 37°55' E 023°36'612.9
2017-Jun-24 16:00N 37°50' E 023°32'612.8
2017-Jun-24 15:30N 37°46' E 023°25'2 3.4
2017-Jun-24 15:00N 37°45' E 023°26'7 7.1
2017-Jun-24 14:00N 37°50' E 023°31'612.9
2017-Jun-24 13:30N 37°55' E 023°36'2 4.4
2017-Jun-24 13:00N 37°57' E 023°39'4 8.8
2017-Jun-24 12:30N 37°53' E 023°35'612.6
2017-Jun-24 12:00N 37°49' E 023°29'510.1
2017-Jun-24 11:30N 37°45' E 023°25'1 1.1
2017-Jun-24 11:00N 37°45' E 023°25'612.3
2017-Jun-24 10:30N 37°49' E 023°31'612.6
2017-Jun-24 10:00N 37°54' E 023°36'3 6.7
2017-Jun-24 09:30N 37°57' E 023°39'0 0.0
2017-Jun-24 09:00N 37°57' E 023°39'4 7.8
2017-Jun-24 08:30N 37°54' E 023°35'612.6
2017-Jun-24 08:00N 37°49' E 023°30'611.4
2017-Jun-24 07:30N 37°45' E 023°25'0 0.9
2017-Jun-24 07:00N 37°45' E 023°25'3 6.9
2017-Jun-24 06:30N 37°48' E 023°28'612.3
2017-Jun-24 06:00N 37°52' E 023°34'612.0
2017-Jun-24 05:30N 37°57' E 023°38'0 0.4
2017-Jun-24 05:00N 37°57' E 023°39'0 0.0
2017-Jun-24 04:30N 37°57' E 023°39'0 0.0
2017-Jun-23 17:31N 37°57' E 023°39'0 0.0
2017-Jun-23 17:30N 37°57' E 023°39'3 6.4
2017-Jun-23 17:00N 37°54' E 023°36'612.9
2017-Jun-23 16:30N 37°49' E 023°30'612.2
2017-Jun-23 16:00N 37°45' E 023°25'1 1.5
2017-Jun-23 15:30N 37°45' E 023°26'3 6.1
2017-Jun-23 15:00N 37°48' E 023°27'1212.2
2017-Jun-23 14:00N 37°56' E 023°38'1 1.4
2017-Jun-23 13:31N 37°57' E 023°38'0 0.0
2017-Jun-23 13:00N 37°57' E 023°38'0 0.0
2017-Jun-23 12:30N 37°57' E 023°38'510.4
2017-Jun-23 12:00N 37°53' E 023°34'612.4
2017-Jun-23 11:30N 37°48' E 023°29'4 8.8
2017-Jun-23 11:00N 37°45' E 023°26'2 3.3
2017-Jun-23 10:31N 37°46' E 023°25'612.8
2017-Jun-23 10:00N 37°50' E 023°32'612.9
2017-Jun-23 09:30N 37°56' E 023°37'2 3.7
2017-Jun-23 09:01N 37°57' E 023°39'2 3.0
2017-Jun-23 08:30N 37°56' E 023°37'612.6
2017-Jun-23 08:00N 37°51' E 023°32'612.6
2017-Jun-23 07:31N 37°47' E 023°26'2 4.0
2017-Jun-23 06:58N 37°45' E 023°26'2 5.0
2017-Jun-23 06:30N 37°47' E 023°26'612.6
2017-Jun-23 06:00N 37°51' E 023°32'612.9
2017-Jun-23 05:30N 37°56' E 023°37'1 2.1
2017-Jun-23 05:00N 37°57' E 023°38'0 0.0
2017-Jun-23 04:31N 37°57' E 023°38'0 0.0
2017-Jun-22 16:52N 37°57' E 023°38'2 4.7
2017-Jun-22 16:31N 37°56' E 023°37'612.7
2017-Jun-22 16:01N 37°51' E 023°32'612.8
2017-Jun-22 15:31N 37°47' E 023°26'2 3.6
2017-Jun-22 15:00N 37°45' E 023°26'2 3.7
2017-Jun-22 14:31N 37°47' E 023°26'1212.5
2017-Jun-22 13:31N 37°56' E 023°37'2 3.7
2017-Jun-22 13:01N 37°57' E 023°38'0 0.0
2017-Jun-22 12:31N 37°57' E 023°38'5 9.7
2017-Jun-22 12:01N 37°53' E 023°34'612.5
2017-Jun-22 11:31N 37°49' E 023°29'5 9.5
2017-Jun-22 11:01N 37°45' E 023°25'2 3.2
2017-Jun-22 10:30N 37°46' E 023°25'612.6
2017-Jun-22 10:01N 37°50' E 023°32'612.7
2017-Jun-22 09:31N 37°55' E 023°36'2 4.7
2017-Jun-22 09:01N 37°57' E 023°39'0 0.1
2017-Jun-22 08:31N 37°57' E 023°38'611.6
2017-Jun-22 08:01N 37°52' E 023°34'612.7
2017-Jun-22 07:30N 37°48' E 023°28'4 7.3
2017-Jun-22 07:00N 37°45' E 023°25'2 4.4
2017-Jun-22 06:31N 37°47' E 023°26'612.6
2017-Jun-22 06:01N 37°51' E 023°32'613.0
2017-Jun-22 05:31N 37°56' E 023°37'1 2.2
2017-Jun-22 05:00N 37°57' E 023°38'0 0.0
2017-Jun-22 04:31N 37°57' E 023°38'0 0.0
2017-Jun-21 16:55N 37°57' E 023°38'2 4.3
2017-Jun-21 16:30N 37°56' E 023°37'612.8
2017-Jun-21 16:00N 37°51' E 023°32'612.7
2017-Jun-21 15:30N 37°46' E 023°26'2 3.4
2017-Jun-21 14:59N 37°45' E 023°26'2 3.6
2017-Jun-21 14:30N 37°46' E 023°26'1312.8
2017-Jun-21 13:31N 37°56' E 023°37'2 3.5
2017-Jun-21 13:00N 37°57' E 023°38'0 0.0
2017-Jun-21 12:30N 37°57' E 023°38'510.3
2017-Jun-21 12:00N 37°53' E 023°34'612.7
2017-Jun-21 11:30N 37°48' E 023°29'4 8.4
2017-Jun-21 11:00N 37°45' E 023°25'1 2.2
2017-Jun-21 10:30N 37°46' E 023°25'612.9
2017-Jun-21 10:00N 37°50' E 023°31'713.0
2017-Jun-21 09:30N 37°55' E 023°36'3 5.3
2017-Jun-21 09:00N 37°57' E 023°38'0 0.1
2017-Jun-21 08:30N 37°57' E 023°38'510.7
2017-Jun-21 08:00N 37°53' E 023°34'612.4
2017-Jun-21 07:30N 37°48' E 023°29'4 8.4
2017-Jun-21 07:00N 37°45' E 023°25'2 4.0
2017-Jun-21 06:30N 37°47' E 023°26'612.9
2017-Jun-21 06:00N 37°51' E 023°32'713.1
2017-Jun-21 05:30N 37°56' E 023°37'1 2.5
2017-Jun-21 05:00N 37°57' E 023°39'0 0.0
2017-Jun-21 04:30N 37°57' E 023°39'0 0.0
2017-Jun-20 17:11N 37°57' E 023°39'0 0.0
2017-Jun-20 17:01N 37°57' E 023°39'5 9.2
2017-Jun-20 16:31N 37°53' E 023°35'612.4
2017-Jun-20 16:01N 37°49' E 023°29'5 9.2
2017-Jun-20 15:28N 37°45' E 023°25'0 0.0
2017-Jun-20 14:51N 37°45' E 023°25'910.2
2017-Jun-20 14:00N 37°51' E 023°33'712.8
2017-Jun-20 13:30N 37°56' E 023°38'1 1.1
2017-Jun-20 12:44N 37°57' E 023°39'0 0.2
2017-Jun-20 12:29N 37°57' E 023°38'510.4
2017-Jun-20 12:00N 37°53' E 023°34'612.8
2017-Jun-20 11:31N 37°48' E 023°28'5 5.6
2017-Jun-20 10:41N 37°45' E 023°25'210.9
2017-Jun-20 10:30N 37°47' E 023°26'612.8
2017-Jun-20 10:01N 37°51' E 023°32'713.3
2017-Jun-20 09:30N 37°56' E 023°37'2 1.8
2017-Jun-20 08:35N 37°57' E 023°39'0 5.4
2017-Jun-20 08:30N 37°56' E 023°38'612.0
2017-Jun-20 08:01N 37°52' E 023°33'612.6
2017-Jun-20 07:30N 37°48' E 023°27'3 6.4
2017-Jun-20 07:01N 37°45' E 023°26'2 4.7
2017-Jun-20 06:29N 37°47' E 023°27'612.9
2017-Jun-20 06:01N 37°51' E 023°33'713.0
2017-Jun-20 05:30N 37°56' E 023°37'1 0.1
2017-Jun-19 16:52N 37°57' E 023°38'3 7.1
2017-Jun-19 16:30N 37°55' E 023°36'612.3
2017-Jun-19 16:00N 37°50' E 023°31'612.5
2017-Jun-19 15:30N 37°46' E 023°25'2 3.0
2017-Jun-19 15:00N 37°45' E 023°25'7 6.7
2017-Jun-19 14:00N 37°50' E 023°31'713.4
2017-Jun-19 13:30N 37°55' E 023°36'3 5.2
2017-Jun-19 13:00N 37°57' E 023°39'0 0.2
2017-Jun-19 12:30N 37°57' E 023°38'611.4
2017-Jun-19 12:00N 37°52' E 023°34'612.5
2017-Jun-19 11:30N 37°48' E 023°28'4 7.3
2017-Jun-19 10:59N 37°45' E 023°25'1 3.1
2017-Jun-19 10:30N 37°46' E 023°25'613.0
2017-Jun-19 10:00N 37°50' E 023°32'713.1
2017-Jun-19 09:30N 37°56' E 023°36'2 4.6
2017-Jun-19 09:00N 37°57' E 023°38'1 2.9
2017-Jun-19 08:31N 37°56' E 023°37'612.4
2017-Jun-19 08:00N 37°51' E 023°32'612.5
2017-Jun-19 07:30N 37°47' E 023°26'2 4.1
2017-Jun-19 06:58N 37°45' E 023°25'2 4.8
2017-Jun-19 06:30N 37°47' E 023°26'713.1
2017-Jun-19 06:00N 37°51' E 023°33'613.1
2017-Jun-19 05:31N 37°56' E 023°37'1 2.1
2017-Jun-19 05:00N 37°57' E 023°39'0 0.0
2017-Jun-19 04:30N 37°57' E 023°39'0 0.0
2017-Jun-18 20:09N 37°57' E 023°39'0 0.0
2017-Jun-18 20:00N 37°57' E 023°38'5 9.7
2017-Jun-18 19:30N 37°53' E 023°35'612.7
2017-Jun-18 19:00N 37°49' E 023°29'5 8.6
2017-Jun-18 18:28N 37°45' E 023°26'0 0.0
2017-Jun-18 17:38N 37°45' E 023°26'0 3.0
2017-Jun-18 17:30N 37°45' E 023°25'611.9
2017-Jun-18 17:00N 37°49' E 023°30'612.9
2017-Jun-18 16:30N 37°54' E 023°35'4 7.2
2017-Jun-18 16:00N 37°57' E 023°38'510.1
2017-Jun-18 15:30N 37°53' E 023°34'612.5
2017-Jun-18 15:01N 37°49' E 023°29'5 4.4
2017-Jun-18 13:58N 37°45' E 023°26'4 7.7
2017-Jun-18 13:30N 37°48' E 023°28'713.1
2017-Jun-18 13:00N 37°52' E 023°34'611.4
2017-Jun-18 12:30N 37°57' E 023°39'0 0.0
2017-Jun-18 12:00N 37°57' E 023°38'611.1
2017-Jun-18 11:30N 37°53' E 023°34'612.0
2017-Jun-18 11:00N 37°48' E 023°28'4 8.4
2017-Jun-18 10:30N 37°45' E 023°26'0 0.0
2017-Jun-18 10:00N 37°45' E 023°26'3 6.7
2017-Jun-18 09:30N 37°48' E 023°28'713.5
2017-Jun-18 09:00N 37°52' E 023°34'611.5
2017-Jun-18 08:30N 37°57' E 023°39'0 0.0
2017-Jun-18 08:00N 37°57' E 023°39'0 0.0
2017-Jun-18 07:30N 37°57' E 023°39'0 0.0
2017-Jun-17 17:01N 37°57' E 023°39'0 0.0
2017-Jun-17 17:01N 37°57' E 023°39'2 5.0
2017-Jun-17 16:31N 37°55' E 023°36'612.7
2017-Jun-17 16:01N 37°50' E 023°31'612.7
2017-Jun-17 15:30N 37°46' E 023°25'1 2.7
2017-Jun-17 15:01N 37°45' E 023°25'2 3.6
2017-Jun-17 14:31N 37°46' E 023°26'1312.9
2017-Jun-17 13:30N 37°56' E 023°37'1 2.9
2017-Jun-17 13:00N 37°57' E 023°39'2 4.4
2017-Jun-17 12:31N 37°55' E 023°36'612.8
2017-Jun-17 12:00N 37°50' E 023°31'612.8
2017-Jun-17 11:31N 37°46' E 023°25'2 3.2
2017-Jun-17 11:00N 37°45' E 023°26'2 3.1
2017-Jun-17 10:30N 37°46' E 023°25'612.9
2017-Jun-17 10:01N 37°50' E 023°31'612.9
2017-Jun-17 09:31N 37°55' E 023°36'2 4.1
2017-Jun-17 09:01N 37°57' E 023°39'2 3.8
2017-Jun-17 08:30N 37°56' E 023°37'612.6
2017-Jun-17 08:01N 37°51' E 023°32'612.8
2017-Jun-17 07:31N 37°46' E 023°25'2 2.9
2017-Jun-17 06:57N 37°45' E 023°25'4 8.9
2017-Jun-17 06:30N 37°48' E 023°28'612.9
2017-Jun-17 06:01N 37°53' E 023°34'510.9
2017-Jun-17 05:31N 37°57' E 023°38'0 0.1
2017-Jun-17 05:01N 37°57' E 023°38'0 0.0
2017-Jun-17 04:30N 37°57' E 023°38'0 0.0
2017-Jun-16 17:24N 37°57' E 023°38'2 5.2
2017-Jun-16 17:00N 37°55' E 023°36'  

Dump ship's entire track history